Albury
Weather
Information

and Archive.
Albury Local Internet Skycam This service provided and funded by Albury Local Internet

Help keep our weatherstation running:

Lavington Weatherstation live data - Conditions of Use

Last updated on 16-Jan-2017 at 21:44:08
Temperature
  Currently 25.9 degrees C
  Apparent Temperature ("Wind Chill") is 22.8 degrees C
  Today has ranged from 13.5 at 05:58 to 35.8 at 16:30
  Yesterday ranged from 11.2 at 05:22 to 34.0 at 17:01
Wind
  Now:    0.0kmh, gusting to   6.5kmh from 112 degrees (ESE)
  Hour:   6.1kmh, gusting to  12.6kmh
Rainfall
   0.0mm Midnight to Midnight (ie, yesterday)
   0.0mm Since Midnight (ie, so far today)
   0.0mm 9am yesterday to 9am today
  23.6mm Total this month
Misc items
  Relative humidity is  8%
  Dewpoint is -10.9 deg C
  Estimated Cloudbase is 15100 feet
  Barometric Pressure is 1014.0 mbar
  Solar Insolation: 0 W/m^2
  UV Index: 0.0 (Low) *NEW*
Top Solar flares in the last 24 hours

Last 24 hours Temperature Graph (click graph for history)
temperature

Last 24 hours Dynamic Wind display (click image for 4-hour image):
Wind Rose

Current Yarrawonga Weather Radar and Infrared Satellite Images from the BOM.

Hourly summaries in the tables below are cumulative and peak values
for the preceding hour, and instantaneous values at the hour.
So far today, 16-Jan-2017
Time   Barom.  Wind + Gust    Direction   RH   Rain    Temp.  Minimum    Maximum
01:00  1015.0   1.6   7.9kmh  105 (ESE)   28%  0.0mm   18.6  17.3@00:48 20.8@00:04
02:00  1015.0   1.1   6.5kmh  136 ( SE)   33%  0.0mm   15.4  15.4@01:55 19.1@01:11
03:00  1015.0   0.6   7.2kmh  135 ( SE)   16%  0.0mm   14.9  14.6@02:50 17.1@02:11
04:00  1015.0   3.5  11.2kmh  108 (ESE)   25%  0.0mm   15.7  14.9@03:00 17.4@03:22
05:00  1016.0   5.7  10.1kmh  109 (ESE)   21%  0.0mm   16.4  15.7@04:00 16.8@04:22
06:00  1016.0   0.4   9.4kmh   70 (ENE)   38%  0.0mm   13.6  13.5@05:58 16.4@05:00
07:00  1017.0   0.0   0.0kmh  289 (WNW)   20%  0.0mm   15.9  13.6@06:00 15.8@06:59
08:00  1018.0   0.9   6.5kmh  155 (SSE)   14%  0.0mm   18.6  15.9@07:00 19.1@07:51
09:00  1018.0   3.9   8.6kmh  207 (SSW)   30%  0.0mm   23.1  18.3@08:03 23.8@08:57
10:00  1017.0   4.2  11.2kmh  338 (NNW)   16%  0.0mm   29.4  22.8@09:06 29.4@09:59
11:00  1017.0   5.9  14.0kmh  123 (ESE)   20%  0.0mm   29.8  25.3@10:07 31.0@10:57
12:00  1017.0   6.9  19.4kmh  315 ( NW)    1%  0.0mm   32.7  29.8@11:00 33.0@11:54
13:00  1016.0   8.4  19.4kmh  205 (SSW)    0%  0.0mm   32.3  30.6@12:53 33.4@12:42
14:00  1015.0  10.0  37.4kmh  294 (WNW)    0%  0.0mm   31.8  30.7@13:02 34.9@13:20
15:00  1014.0   9.2  18.0kmh  198 (SSW)    0%  0.0mm   34.5  31.2@14:37 34.6@14:19
16:00  1014.0   8.7  18.7kmh  109 (ESE)    0%  0.0mm   34.3  32.1@15:22 35.3@15:08
17:00  1013.0   9.6  18.7kmh  141 ( SE)    0%  0.0mm   34.0  32.5@16:28 35.8@16:30
18:00  1013.0   8.5  20.9kmh  165 (SSE)    0%  0.0mm   33.9  33.3@17:03 35.7@17:10
19:00  1013.0   9.3  20.2kmh  164 (SSE)    0%  0.0mm   33.5  33.2@18:18 34.6@18:12
20:00  1013.0   7.3  14.0kmh  143 ( SE)    0%  0.0mm   32.2  32.2@19:59 33.9@19:02
21:00  1014.0   5.3  10.1kmh  108 (ESE)    0%  0.0mm   28.6  27.4@20:46 32.2@20:00
21:44  1014.0   6.1  12.6kmh  109 (ESE)    8%  0.0mm   25.9  25.7@21:39 28.8@21:01


Summary for yesterday, 15-Jan-2017
Time   Barom.  Wind + Gust    Direction   RH   Rain    Temp.  Minimum    Maximum
01:00  1015.0   7.4  13.3kmh  212 (SSW)    3%  0.0mm   16.6  16.6@00:59 18.0@00:00
02:00  1015.0   8.7  15.5kmh  217 ( SW)   40%  0.0mm   16.4  16.4@01:46 16.9@01:21
03:00  1015.0   6.7  11.2kmh  256 (WSW)   10%  0.0mm   14.9  14.6@02:37 16.4@02:00
04:00  1015.0   4.9  10.1kmh  217 ( SW)   19%  0.0mm   13.2  13.2@03:58 15.0@03:01
05:00  1015.0   0.9   7.9kmh  220 ( SW)   25%  0.0mm   12.1  11.7@04:50 13.3@04:02
06:00  1016.0   0.2   6.5kmh  145 ( SE)   31%  0.0mm   11.7  11.2@05:22 12.1@05:00
07:00  1016.0   5.6  11.9kmh  140 ( SE)   28%  0.0mm   12.7  11.6@06:12 12.7@06:31
08:00  1017.0   7.8  12.6kmh  156 (SSE)   17%  0.0mm   15.5  12.7@07:00 15.5@07:58
09:00  1018.0   8.5  15.5kmh  152 (SSE)    3%  0.0mm   19.1  15.1@08:06 19.2@08:58
10:00  1017.0   9.0  16.9kmh  144 ( SE)   33%  0.0mm   20.2  18.0@09:08 21.0@09:41
11:00  1017.0   8.6  16.9kmh  129 ( SE)   29%  0.0mm   23.5  20.1@10:01 23.5@10:59
12:00  1017.0   6.0  13.3kmh  197 (SSW)   14%  0.0mm   27.0  22.8@11:01 27.5@11:30
13:00  1017.0   6.2  16.2kmh  201 (SSW)    3%  0.0mm   27.0  25.1@12:01 28.5@12:50
14:00  1016.0   6.4  16.2kmh  171 ( S )    2%  0.0mm   29.9  26.0@13:01 30.8@13:35
15:00  1016.0   7.4  18.7kmh  148 (SSE)    0%  0.0mm   27.9  28.0@14:24 31.4@14:07
16:00  1015.0   7.2  16.2kmh  166 (SSE)    0%  0.0mm   32.8  27.9@15:00 32.7@15:52
17:00  1015.0   6.7  17.6kmh  152 (SSE)    0%  0.0mm   33.7  29.2@16:07 33.5@16:59
18:00  1014.0   8.9  17.6kmh  228 ( SW)    0%  0.0mm   30.0  29.7@17:38 34.0@17:01
19:00  1014.0   9.4  18.0kmh  235 ( SW)    0%  0.0mm   30.0  29.6@18:15 31.5@18:06
20:00  1015.0   8.4  14.0kmh  229 ( SW)    0%  0.0mm   28.7  28.7@19:58 30.3@19:02
21:00  1015.0   5.4  10.8kmh  218 ( SW)    0%  0.0mm   23.4  23.5@20:59 28.7@20:00
22:00  1015.0   5.5   9.4kmh  212 (SSW)    1%  0.0mm   22.9  22.8@21:59 24.3@21:17
23:00  1015.0   4.0   7.9kmh  142 ( SE)    2%  0.0mm   21.2  21.2@22:41 23.6@22:20
00:00  1015.0   1.6  11.2kmh  106 (ESE)   11%  0.0mm   20.6  19.0@23:37 21.6@23:09